Time;durP1;ratioP1;P1;durP2;ratioP2;P2;SDS_P1;SDS_P2;PMS_P1;PMS_P2;Temp;Humidity;BMP_temperature;BMP_pressure;BME280_temperature;BME280_humidity;BME280_pressure;Samples;Min_cycle;Max_cycle;Signal;HPM_P1;HPM_P2
2022/10/10 00:00:23;;;;;;;8.60;4.75;;;;;;;11.75;65.61;100722.84;4142004;28;20034;-67
2022/10/10 00:02:26;;;;;;;7.80;4.25;;;;;;;11.75;65.63;100728.03;4150690;28;20550;-67
2022/10/10 00:04:29;;;;;;;9.95;4.85;;;;;;;11.74;65.31;100721.09;4142701;28;20100;-67
2022/10/10 00:06:33;;;;;;;7.85;3.70;;;;;;;11.68;65.51;100721.88;4165101;28;20133;-67
2022/10/10 00:08:36;;;;;;;10.52;4.75;;;;;;;11.67;66.35;100721.88;4147099;28;20042;-66
2022/10/10 00:10:39;;;;;;;8.90;4.00;;;;;;;11.68;66.06;100713.19;4162139;28;20033;-66
2022/10/10 00:12:42;;;;;;;8.45;4.75;;;;;;;11.65;65.91;100713.16;4156005;28;20041;-66
2022/10/10 00:14:44;;;;;;;6.43;4.07;;;;;;;11.64;66.05;100720.09;4153521;28;20038;-67
2022/10/10 00:16:47;;;;;;;9.50;4.75;;;;;;;11.64;66.32;100717.50;4147486;28;20045;-66
2022/10/10 00:18:50;;;;;;;7.10;4.15;;;;;;;11.63;66.34;100717.47;4163699;28;20064;-66
2022/10/10 00:20:54;;;;;;;8.85;5.15;;;;;;;11.61;66.13;100721.75;4156574;28;20042;-66
2022/10/10 00:22:58;;;;;;;7.72;4.72;;;;;;;11.58;65.52;100724.31;4141348;28;20053;-67
2022/10/10 00:25:00;;;;;;;8.98;4.25;;;;;;;11.56;66.03;100723.44;4155885;28;20045;-67
2022/10/10 00:27:03;;;;;;;11.30;4.57;;;;;;;11.49;65.95;100712.94;4149688;28;20030;-65
2022/10/10 00:29:06;;;;;;;8.30;4.45;;;;;;;11.49;65.64;100719.84;4146547;28;20336;-67
2022/10/10 00:31:09;;;;;;;7.70;4.93;;;;;;;11.51;66.04;100720.78;4155692;28;20045;-67
2022/10/10 00:33:12;;;;;;;9.13;4.13;;;;;;;11.54;65.85;100720.81;4159480;28;20353;-67
2022/10/10 00:35:15;;;;;;;9.65;4.78;;;;;;;11.52;65.43;100715.59;4124922;28;20508;-66
2022/10/10 00:37:18;;;;;;;8.93;4.53;;;;;;;11.51;65.90;100711.22;4163477;28;20093;-67
2022/10/10 00:39:22;;;;;;;9.35;4.97;;;;;;;11.51;65.87;100718.19;4159361;28;20069;-67
2022/10/10 00:41:25;;;;;;;8.30;4.68;;;;;;;11.45;66.17;100724.16;4139295;28;20043;-67
2022/10/10 00:43:29;;;;;;;7.15;4.20;;;;;;;11.42;66.10;100715.41;4136504;28;20563;-67
2022/10/10 00:45:39;;;;;;;10.10;5.72;;;;;;;11.39;66.14;100711.06;4162810;28;20133;-67
2022/10/10 00:47:41;;;;;;;19.77;7.80;;;;;;;11.34;67.01;100708.38;4148341;28;20038;-67
2022/10/10 00:49:44;;;;;;;8.85;4.75;;;;;;;11.31;66.81;100716.13;4139861;28;20042;-67
2022/10/10 00:51:50;;;;;;;9.35;5.10;;;;;;;11.32;67.14;100723.09;4138357;28;20042;-67
2022/10/10 00:53:56;;;;;;;9.95;4.72;;;;;;;11.33;66.25;100716.16;4163486;28;20462;-65
2022/10/10 00:56:02;;;;;;;6.35;3.97;;;;;;;11.31;66.64;100720.47;4164313;28;20047;-65
2022/10/10 00:58:07;;;;;;;8.70;4.38;;;;;;;11.27;66.35;100714.34;4161098;28;20044;-65
2022/10/10 01:00:11;;;;;;;8.15;4.10;;;;;;;11.27;67.06;100716.97;4138055;28;20037;-65
2022/10/10 01:02:14;;;;;;;7.15;4.70;;;;;;;11.23;67.27;100709.06;4146563;28;20074;-65
2022/10/10 01:04:35;;;;;;;8.13;4.88;;;;;;;11.27;67.07;100708.25;4163328;28;20095;-66
2022/10/10 01:06:43;;;;;;;10.60;4.85;;;;;;;11.20;67.16;100709.00;4147528;28;20108;-65
2022/10/10 01:08:46;;;;;;;10.82;5.07;;;;;;;11.22;67.10;100702.13;4158646;28;20103;-66
2022/10/10 01:11:04;;;;;;;8.60;4.75;;;;;;;11.21;67.22;100708.16;4148317;28;20042;-66
2022/10/10 01:13:15;;;;;;;10.88;4.68;;;;;;;11.19;67.45;100713.34;4125621;28;20054;-65
2022/10/10 01:15:25;;;;;;;8.82;5.07;;;;;;;11.19;67.38;100710.75;4146601;28;20581;-66
2022/10/10 01:17:33;;;;;;;8.13;4.30;;;;;;;11.15;66.95;100707.22;4162484;28;20046;-66
2022/10/10 01:20:04;;;;;;;12.63;4.53;;;;;;;11.15;67.95;100707.22;4137983;28;20073;-65
2022/10/10 01:22:21;;;;;;;15.93;5.45;;;;;;;11.13;67.70;100714.13;4151500;28;20483;-66
2022/10/10 01:24:48;;;;;;;6.80;4.28;;;;;;;11.03;68.17;100701.81;4145237;28;20100;-66
2022/10/10 01:27:10;;;;;;;9.55;5.60;;;;;;;10.98;67.71;100709.56;4163876;28;20065;-66
2022/10/10 01:29:23;;;;;;;7.60;4.95;;;;;;;10.99;68.27;100710.41;4155548;28;20065;-66
2022/10/10 01:31:26;;;;;;;7.93;4.93;;;;;;;10.93;68.15;100710.31;4149707;28;20065;-66
2022/10/10 01:33:37;;;;;;;10.40;4.53;;;;;;;10.97;67.80;100709.53;4147003;28;20042;-66
2022/10/10 01:35:50;;;;;;;8.80;5.15;;;;;;;10.96;68.20;100700.84;4142752;28;20080;-66
2022/10/10 01:38:01;;;;;;;9.55;5.43;;;;;;;10.98;68.62;100695.66;4145526;28;20045;-66
2022/10/10 01:40:11;;;;;;;7.82;4.43;;;;;;;10.92;69.01;100699.06;4156737;28;20060;-66
2022/10/10 01:42:19;;;;;;;8.02;5.13;;;;;;;10.91;68.81;100699.91;4158889;28;20454;-66
2022/10/10 01:44:23;;;;;;;8.48;4.80;;;;;;;10.89;68.61;100698.13;4145361;28;20046;-66
2022/10/10 01:46:26;;;;;;;10.00;5.05;;;;;;;10.89;68.62;100700.72;4162552;28;20537;-66
2022/10/10 01:48:31;;;;;;;9.05;4.53;;;;;;;10.95;68.44;100695.59;4144929;28;20129;-65
2022/10/10 01:50:50;;;;;;;9.25;5.07;;;;;;;10.95;68.26;100700.81;4135246;28;20041;-65
2022/10/10 01:53:05;;;;;;;6.38;4.07;;;;;;;10.93;68.00;100695.59;4154641;28;20100;-66
2022/10/10 01:55:25;;;;;;;8.32;4.45;;;;;;;10.96;68.89;100699.97;4151667;28;20033;-65
2022/10/10 01:57:39;;;;;;;12.50;4.85;;;;;;;10.94;67.89;100691.28;4145292;28;20037;-66
2022/10/10 01:59:48;;;;;;;9.40;4.65;;;;;;;10.92;68.49;100687.75;4156378;28;20557;-66
2022/10/10 02:01:55;;;;;;;11.82;5.25;;;;;;;10.91;68.59;100686.03;4141600;28;20452;-66
2022/10/10 02:04:05;;;;;;;6.82;4.07;;;;;;;10.93;68.15;100692.13;4135853;28;20092;-66
2022/10/10 02:06:14;;;;;;;8.00;4.90;;;;;;;10.91;68.21;100686.91;4154953;28;20484;-66
2022/10/10 02:08:25;;;;;;;10.32;5.13;;;;;;;10.92;68.23;100687.75;4158954;28;20045;-66
2022/10/10 02:10:32;;;;;;;8.98;5.20;;;;;;;10.91;68.71;100691.22;4141235;28;20042;-66
2022/10/10 02:12:36;;;;;;;6.43;4.30;;;;;;;10.86;68.86;100691.13;4152304;28;20047;-66
2022/10/10 02:14:43;;;;;;;7.63;5.00;;;;;;;10.83;68.30;100683.28;4156008;28;20037;-66
2022/10/10 02:16:51;;;;;;;9.07;5.47;;;;;;;10.82;68.18;100679.81;4152647;28;20557;-66
2022/10/10 02:18:55;;;;;;;7.28;4.10;;;;;;;10.79;68.24;100686.66;4151659;28;20041;-66
2022/10/10 02:20:58;;;;;;;6.32;4.18;;;;;;;10.78;68.27;100684.94;4151976;28;20121;-66
2022/10/10 02:23:01;;;;;;;8.07;4.45;;;;;;;10.78;68.19;100679.75;4148803;28;20573;-66
2022/10/10 02:25:05;;;;;;;6.13;3.92;;;;;;;10.78;68.28;100678.00;4164645;28;20087;-67
2022/10/10 02:27:14;;;;;;;8.63;4.57;;;;;;;10.78;68.80;100684.94;4162232;28;20041;-67
2022/10/10 02:29:22;;;;;;;8.25;5.18;;;;;;;10.78;69.22;100675.41;4162126;28;20449;-67
2022/10/10 02:31:30;;;;;;;9.02;4.45;;;;;;;10.79;68.38;100679.75;4166346;28;20045;-67
2022/10/10 02:33:43;;;;;;;8.02;4.68;;;;;;;10.80;68.61;100676.28;4166003;28;20042;-67
2022/10/10 02:35:49;;;;;;;9.18;5.32;;;;;;;10.75;69.04;100675.34;4146214;28;20042;-67
2022/10/10 02:37:53;;;;;;;10.88;5.10;;;;;;;10.71;69.17;100678.75;4159100;28;20504;-67
2022/10/10 02:40:01;;;;;;;9.32;5.10;;;;;;;10.68;68.62;100676.09;4158647;28;20041;-67
2022/10/10 02:42:05;;;;;;;8.40;5.28;;;;;;;10.67;68.75;100676.94;4166181;28;20036;-67
2022/10/10 02:44:08;;;;;;;8.82;4.72;;;;;;;10.70;69.01;100670.94;4165882;28;20045;-66
2022/10/10 02:46:13;;;;;;;7.70;3.95;;;;;;;10.71;69.02;100672.69;4160689;28;20037;-66
2022/10/10 02:48:16;;;;;;;8.82;5.20;;;;;;;10.70;69.65;100677.00;4162960;28;20483;-67
2022/10/10 02:50:21;;;;;;;8.65;5.10;;;;;;;10.69;69.47;100669.16;4143948;28;20557;-67
2022/10/10 02:52:24;;;;;;;8.75;4.68;;;;;;;10.67;69.74;100676.06;4150850;28;20065;-67
2022/10/10 02:54:27;;;;;;;9.07;5.05;;;;;;;10.69;69.54;100679.56;4157216;28;20041;-67
2022/10/10 02:56:30;;;;;;;12.18;5.18;;;;;;;10.65;69.44;100668.25;4154580;28;20034;-69
2022/10/10 02:58:33;;;;;;;9.70;5.38;;;;;;;10.66;69.61;100670.00;4146039;28;20038;-67
2022/10/10 03:00:35;;;;;;;9.30;5.40;;;;;;;10.68;69.97;100673.50;4165896;28;20075;-67
2022/10/10 03:02:38;;;;;;;7.18;4.63;;;;;;;10.68;70.23;100664.84;4148452;28;20034;-67
2022/10/10 03:04:43;;;;;;;9.43;5.78;;;;;;;10.67;69.98;100666.53;4140088;28;20038;-67
2022/10/10 03:06:47;;;;;;;10.82;5.75;;;;;;;10.67;70.20;100671.75;4157300;28;20530;-67
2022/10/10 03:08:50;;;;;;;9.38;5.10;;;;;;;10.65;70.86;100678.66;4149185;28;20038;-67
2022/10/10 03:10:59;;;;;;;7.72;4.78;;;;;;;10.67;70.45;100673.47;4160058;28;20084;-67
2022/10/10 03:13:01;;;;;;;7.53;4.32;;;;;;;10.65;70.32;100678.66;4147795;28;20030;-67
2022/10/10 03:15:05;;;;;;;8.10;4.63;;;;;;;10.68;70.73;100677.84;4161866;28;20038;-67
2022/10/10 03:17:13;;;;;;;9.90;5.00;;;;;;;10.66;70.89;100677.81;4145351;28;20041;-68
2022/10/10 03:19:16;;;;;;;6.30;4.50;;;;;;;10.65;70.85;100673.44;4156977;28;20384;-67
2022/10/10 03:21:19;;;;;;;10.73;4.85;;;;;;;10.68;70.92;100676.09;4132345;28;20042;-67
2022/10/10 03:23:24;;;;;;;6.97;4.55;;;;;;;10.68;70.63;100673.50;4139706;28;21583;-67
2022/10/10 03:25:27;;;;;;;7.15;4.93;;;;;;;10.71;70.99;100675.28;4157727;28;20033;-67
2022/10/10 03:27:30;;;;;;;7.13;4.95;;;;;;;10.69;70.86;100674.38;4151987;28;20080;-67
2022/10/10 03:29:32;;;;;;;9.18;5.50;;;;;;;10.68;71.18;100665.69;4147255;28;20042;-67
2022/10/10 03:31:35;;;;;;;19.02;5.95;;;;;;;10.69;70.49;100670.06;4149526;28;20207;-67
2022/10/10 03:33:38;;;;;;;7.05;4.18;;;;;;;10.64;71.00;100676.88;4131143;28;20072;-67
2022/10/10 03:35:41;;;;;;;7.22;4.65;;;;;;;10.55;71.66;100676.75;4158702;28;20068;-67
2022/10/10 03:37:44;;;;;;;7.47;4.57;;;;;;;10.55;71.30;100676.75;4164596;28;20086;-67
2022/10/10 03:39:48;;;;;;;7.57;4.53;;;;;;;10.54;71.15;100673.28;4165324;28;20045;-67
2022/10/10 03:41:51;;;;;;;8.10;4.95;;;;;;;10.53;71.66;100679.31;4164483;28;20057;-67
2022/10/10 03:43:54;;;;;;;7.72;4.70;;;;;;;10.55;71.44;100688.00;4143613;28;20507;-67
2022/10/10 03:45:57;;;;;;;9.40;5.57;;;;;;;10.59;72.24;100684.63;4147008;28;20057;-67
2022/10/10 03:47:59;;;;;;;9.70;4.90;;;;;;;10.59;72.40;100682.00;4156623;28;20045;-67
2022/10/10 03:50:02;;;;;;;8.15;4.88;;;;;;;10.58;72.34;100689.78;4137948;28;20512;-66
2022/10/10 03:52:05;;;;;;;10.05;5.45;;;;;;;10.60;72.76;100682.88;4155866;28;20048;-66
2022/10/10 03:54:08;;;;;;;8.07;4.30;;;;;;;10.56;72.54;100688.91;4160670;28;20045;-66
2022/10/10 03:56:12;;;;;;;5.85;3.58;;;;;;;10.52;72.70;100687.94;4154005;28;20452;-66
2022/10/10 03:58:15;;;;;;;11.05;5.18;;;;;;;10.52;72.32;100685.34;4165406;28;20549;-66
2022/10/10 04:00:24;;;;;;;6.72;4.57;;;;;;;10.53;72.04;100678.41;4138840;28;20042;-66
2022/10/10 04:02:27;;;;;;;9.73;4.82;;;;;;;10.56;71.99;100678.50;4156037;28;20042;-66
2022/10/10 04:04:30;;;;;;;7.35;4.32;;;;;;;10.54;72.37;100681.06;4141684;28;20065;-66
2022/10/10 04:06:32;;;;;;;6.13;4.10;;;;;;;10.54;72.83;100681.06;4137890;28;20042;-65
2022/10/10 04:08:35;;;;;;;10.52;6.47;;;;;;;10.51;72.43;100683.59;4164628;28;20037;-65
2022/10/10 04:10:38;;;;;;;7.80;5.07;;;;;;;10.51;72.60;100686.19;4149779;28;20042;-66
2022/10/10 04:12:42;;;;;;;7.40;4.18;;;;;;;10.50;72.55;100687.06;4138663;28;20045;-66
2022/10/10 04:14:45;;;;;;;7.80;4.75;;;;;;;10.48;72.12;100686.13;4156230;28;20050;-65
2022/10/10 04:16:48;;;;;;;6.82;4.28;;;;;;;10.51;72.16;100695.72;4162214;28;20458;-66
2022/10/10 04:18:50;;;;;;;6.82;4.50;;;;;;;10.53;71.94;100691.41;4145637;28;20041;-66
2022/10/10 04:20:53;;;;;;;8.70;4.80;;;;;;;10.51;71.49;100682.72;4156214;28;20042;-66
2022/10/10 04:22:56;;;;;;;9.85;5.65;;;;;;;10.50;71.82;100686.16;4148539;28;20492;-66
2022/10/10 04:24:59;;;;;;;6.72;4.60;;;;;;;10.51;71.90;100682.72;4130495;28;20491;-66
2022/10/10 04:27:02;;;;;;;8.88;4.88;;;;;;;10.47;71.60;100677.47;4148296;28;20096;-66
2022/10/10 04:29:06;;;;;;;6.18;4.38;;;;;;;10.45;71.46;100675.69;4156775;28;20073;-66
2022/10/10 04:31:08;;;;;;;7.55;4.82;;;;;;;10.39;71.78;100681.66;4147460;28;20037;-66
2022/10/10 04:33:11;;;;;;;9.23;4.75;;;;;;;10.36;72.56;100680.72;4153066;28;20041;-66
2022/10/10 04:35:14;;;;;;;7.50;4.03;;;;;;;10.36;71.81;100685.94;4148578;28;20124;-66
2022/10/10 04:37:17;;;;;;;10.90;5.32;;;;;;;10.28;71.85;100684.03;4155917;28;20037;-66
2022/10/10 04:39:20;;;;;;;8.27;4.95;;;;;;;10.27;71.75;100681.41;4152006;28;20038;-66
2022/10/10 04:41:23;;;;;;;6.75;4.60;;;;;;;10.22;72.68;100683.00;4131008;28;20046;-66
2022/10/10 04:43:29;;;;;;;8.55;4.95;;;;;;;10.22;72.67;100683.00;4147570;28;20564;-66
2022/10/10 04:45:33;;;;;;;13.00;5.80;;;;;;;10.23;71.84;100679.59;4148695;28;20479;-65
2022/10/10 04:47:39;;;;;;;8.45;5.00;;;;;;;10.21;72.22;100683.88;4156351;28;20042;-66
2022/10/10 04:49:42;;;;;;;12.35;5.93;;;;;;;10.26;71.95;100690.03;4148134;28;20092;-66
2022/10/10 04:51:45;;;;;;;10.10;5.53;;;;;;;10.20;71.72;100685.59;4130784;28;20065;-66
2022/10/10 04:53:47;;;;;;;9.35;5.03;;;;;;;10.19;72.05;100688.16;4137076;28;20088;-66
2022/10/10 04:55:52;;;;;;;11.48;6.05;;;;;;;10.20;72.43;100684.72;4155436;28;20111;-66
2022/10/10 04:57:55;;;;;;;11.85;5.30;;;;;;;10.21;72.34;100692.53;4164463;28;20041;-66
2022/10/10 04:59:58;;;;;;;9.48;4.32;;;;;;;10.16;72.25;100686.38;4146435;28;20042;-66
2022/10/10 05:02:02;;;;;;;12.30;5.35;;;;;;;10.16;72.43;100693.28;4145961;28;20050;-66
2022/10/10 05:04:05;;;;;;;10.77;5.30;;;;;;;10.11;72.39;100688.88;4160051;28;20037;-66
2022/10/10 05:06:08;;;;;;;9.20;4.82;;;;;;;10.17;72.51;100700.25;4147990;28;20042;-66
2022/10/10 05:08:11;;;;;;;10.57;5.35;;;;;;;10.19;72.14;100690.75;4116694;28;20046;-66
2022/10/10 05:10:13;;;;;;;13.48;5.38;;;;;;;10.13;72.10;100689.81;4158269;28;20446;-66
2022/10/10 05:12:16;;;;;;;10.38;4.88;;;;;;;10.09;72.23;100690.59;4160470;28;20046;-66
2022/10/10 05:14:19;;;;;;;8.80;5.45;;;;;;;10.10;72.28;100687.16;4129790;28;20043;-66
2022/10/10 05:16:22;;;;;;;11.73;4.40;;;;;;;10.11;72.21;100693.22;4146535;28;20393;-65
2022/10/10 05:18:26;;;;;;;8.38;5.32;;;;;;;10.08;72.43;100683.63;4130274;28;20050;-66
2022/10/10 05:20:29;;;;;;;8.70;5.60;;;;;;;10.08;72.44;100681.03;4149117;28;20395;-66
2022/10/10 05:22:33;;;;;;;9.55;5.32;;;;;;;10.11;72.02;100691.47;4155819;28;20164;-66
2022/10/10 05:24:35;;;;;;;8.50;5.35;;;;;;;10.13;72.34;100688.91;4147026;28;20041;-66
2022/10/10 05:26:38;;;;;;;10.85;5.78;;;;;;;10.18;72.06;100691.59;4147668;28;20041;-66
2022/10/10 05:28:45;;;;;;;14.52;5.47;;;;;;;10.17;71.65;100689.88;4147761;28;20050;-66
2022/10/10 05:30:47;;;;;;;13.20;6.75;;;;;;;10.16;72.33;100690.69;4148895;28;20033;-66
2022/10/10 05:32:50;;;;;;;15.15;6.13;;;;;;;10.21;71.92;100692.53;4114029;28;20047;-66
2022/10/10 05:34:55;;;;;;;14.77;6.72;;;;;;;10.24;71.09;100694.34;4146962;28;20037;-66
2022/10/10 05:36:58;;;;;;;21.08;7.13;;;;;;;10.20;71.55;100697.72;4147537;28;20049;-68
2022/10/10 05:39:02;;;;;;;17.05;7.22;;;;;;;10.17;71.43;100689.88;4148015;28;20088;-66
2022/10/10 05:41:05;;;;;;;25.23;7.50;;;;;;;10.19;71.46;100693.34;4149013;28;20491;-66
2022/10/10 05:43:08;;;;;;;12.88;7.05;;;;;;;10.14;71.33;100691.53;4143069;28;20089;-66
2022/10/10 05:45:11;;;;;;;20.15;7.55;;;;;;;10.16;71.38;100695.91;4129744;28;20042;-66
2022/10/10 05:47:14;;;;;;;20.15;7.38;;;;;;;10.16;71.74;100688.09;4157452;28;20034;-66
2022/10/10 05:49:17;;;;;;;16.02;8.02;;;;;;;10.19;71.27;100683.84;4141973;28;20042;-66
2022/10/10 05:51:21;;;;;;;22.10;7.57;;;;;;;10.26;71.30;100682.22;4145379;28;20050;-66
2022/10/10 05:53:25;;;;;;;15.00;7.07;;;;;;;10.21;71.37;100683.88;4153258;28;20038;-66
2022/10/10 05:55:28;;;;;;;15.40;6.45;;;;;;;10.22;71.96;100693.41;4151119;28;20515;-66
2022/10/10 05:57:31;;;;;;;19.73;9.48;;;;;;;10.23;71.56;100688.25;4150903;28;20046;-66
2022/10/10 05:59:34;;;;;;;22.23;8.35;;;;;;;10.25;71.65;100689.16;4133286;28;20045;-66
2022/10/10 06:01:37;;;;;;;22.77;8.43;;;;;;;10.29;72.04;100687.47;4164265;28;20037;-66
2022/10/10 06:03:40;;;;;;;16.52;8.32;;;;;;;10.30;71.63;100687.50;4148784;28;20126;-66
2022/10/10 06:05:44;;;;;;;13.18;7.28;;;;;;;10.34;71.97;100690.19;4156308;28;20034;-66
2022/10/10 06:07:48;;;;;;;18.73;7.68;;;;;;;10.30;71.84;100697.91;4158875;28;20492;-66
2022/10/10 06:10:11;;;;;;;17.85;9.07;;;;;;;10.24;71.97;100697.78;4158698;28;20061;-66
2022/10/10 06:12:13;;;;;;;19.73;8.13;;;;;;;10.23;72.76;100697.78;4155695;28;20404;-66
2022/10/10 06:14:16;;;;;;;20.70;8.55;;;;;;;10.21;72.86;100691.69;4132499;28;20385;-66
2022/10/10 06:16:19;;;;;;;22.95;8.45;;;;;;;10.33;72.79;100704.03;4132996;28;20050;-66
2022/10/10 06:18:22;;;;;;;18.73;8.80;;;;;;;10.39;72.37;100693.78;4151364;28;20492;-66
2022/10/10 06:20:25;;;;;;;19.90;7.90;;;;;;;10.42;72.29;100699.88;4157657;28;20228;-66
2022/10/10 06:22:28;;;;;;;12.40;6.18;;;;;;;10.45;72.82;100697.38;4136103;28;20042;-65
2022/10/10 06:24:32;;;;;;;18.10;8.05;;;;;;;10.46;72.79;100706.03;4149578;28;20088;-66
2022/10/10 06:26:35;;;;;;;17.33;7.60;;;;;;;10.44;73.17;100708.63;4150124;28;20053;-66
2022/10/10 06:28:38;;;;;;;19.95;9.27;;;;;;;10.56;72.69;100699.28;4153193;28;20037;-66
2022/10/10 06:30:43;;;;;;;18.03;9.23;;;;;;;10.67;72.47;100696.88;4157691;28;20487;-66
2022/10/10 06:32:46;;;;;;;12.70;6.80;;;;;;;10.63;73.17;100703.72;4147437;28;20293;-66
2022/10/10 06:34:49;;;;;;;14.30;6.53;;;;;;;10.62;73.34;100705.47;4149437;28;20034;-66
2022/10/10 06:36:51;;;;;;;12.35;5.28;;;;;;;10.65;72.47;100704.66;4150357;28;20042;-66
2022/10/10 06:38:54;;;;;;;10.20;4.72;;;;;;;10.63;73.52;100706.31;4132894;28;20046;-66
2022/10/10 06:41:03;;;;;;;9.90;5.00;;;;;;;10.64;73.45;100703.78;4156434;28;20496;-65
2022/10/10 06:43:10;;;;;;;10.20;4.55;;;;;;;10.67;73.44;100709.88;4132185;28;20050;-66
2022/10/10 06:45:13;;;;;;;14.50;5.10;;;;;;;10.67;73.30;100708.13;4148656;28;20046;-66
2022/10/10 06:47:15;;;;;;;10.57;5.43;;;;;;;10.72;73.85;100711.72;4165158;28;20442;-65
2022/10/10 06:49:18;;;;;;;8.10;4.45;;;;;;;10.70;73.12;100716.00;4166491;28;20069;-66
2022/10/10 06:51:21;;;;;;;12.13;5.47;;;;;;;10.74;73.50;100715.19;4160980;28;20041;-66
2022/10/10 06:53:24;;;;;;;9.77;4.82;;;;;;;10.78;73.83;100718.75;4142939;28;20046;-66
2022/10/10 06:55:27;;;;;;;5.97;4.30;;;;;;;10.78;73.19;100727.41;4150605;28;20046;-66
2022/10/10 06:57:31;;;;;;;8.68;4.60;;;;;;;10.78;74.02;100724.81;4158058;28;20052;-66
2022/10/10 06:59:34;;;;;;;8.35;4.47;;;;;;;10.76;73.76;100734.31;4149775;28;20420;-66
2022/10/10 07:01:36;;;;;;;9.23;4.97;;;;;;;10.76;74.30;100734.31;4155083;28;20117;-66
2022/10/10 07:03:39;;;;;;;13.32;5.00;;;;;;;10.77;74.13;100738.66;4155688;28;20037;-65
2022/10/10 07:05:42;;;;;;;6.78;4.18;;;;;;;10.81;74.64;100747.41;4147553;28;20046;-65
2022/10/10 07:07:45;;;;;;;8.82;4.53;;;;;;;10.82;74.32;100743.97;4144238;28;20049;-65
2022/10/10 07:09:48;;;;;;;9.27;4.60;;;;;;;10.85;74.18;100750.91;4157732;28;20096;-65
2022/10/10 07:11:51;;;;;;;9.48;3.58;;;;;;;10.91;74.52;100746.72;4116146;28;20050;-66
2022/10/10 07:13:55;;;;;;;7.13;3.97;;;;;;;10.94;73.79;100741.56;4131578;28;20046;-66
2022/10/10 07:15:58;;;;;;;9.80;4.78;;;;;;;10.99;74.20;100752.03;4154416;28;20566;-66
2022/10/10 07:18:01;;;;;;;9.88;4.75;;;;;;;11.00;74.35;100757.28;4156269;28;20069;-65
2022/10/10 07:20:04;;;;;;;12.63;5.50;;;;;;;11.08;73.55;100756.53;4149652;28;20042;-66
2022/10/10 07:22:07;;;;;;;11.88;6.57;;;;;;;11.11;74.35;100764.38;4149447;28;20100;-66
2022/10/10 07:24:10;;;;;;;7.32;4.65;;;;;;;11.17;74.03;100764.50;4131220;28;20692;-66
2022/10/10 07:26:15;;;;;;;11.07;6.03;;;;;;;11.23;73.80;100766.31;4146354;28;20349;-66
2022/10/10 07:28:18;;;;;;;8.30;5.38;;;;;;;11.31;74.03;100762.97;4153592;28;20140;-65
2022/10/10 07:30:23;;;;;;;8.50;4.90;;;;;;;11.38;73.94;100761.38;4149584;28;20052;-65
2022/10/10 07:32:26;;;;;;;9.25;4.78;;;;;;;11.44;73.96;100755.38;4149459;28;20069;-66
2022/10/10 07:34:28;;;;;;;9.70;4.18;;;;;;;11.51;73.58;100752.88;4148528;28;20046;-65
2022/10/10 07:36:31;;;;;;;12.88;5.18;;;;;;;11.55;73.48;100747.72;4131325;28;20038;-66
2022/10/10 07:38:34;;;;;;;7.13;3.85;;;;;;;11.59;72.97;100760.81;4141112;28;20114;-66
2022/10/10 07:40:39;;;;;;;9.05;4.43;;;;;;;11.67;72.71;100758.34;4155862;28;20061;-65
2022/10/10 07:42:42;;;;;;;10.25;4.43;;;;;;;11.68;72.46;100760.97;4164839;28;20045;-66
2022/10/10 07:44:45;;;;;;;8.75;5.93;;;;;;;11.74;72.97;100754.06;4156328;28;20037;-66
2022/10/10 07:46:49;;;;;;;10.25;4.13;;;;;;;11.77;72.21;100760.22;4149134;28;20053;-66
2022/10/10 07:48:52;;;;;;;8.23;3.97;;;;;;;11.82;72.29;100757.66;4115558;28;20444;-65
2022/10/10 07:50:54;;;;;;;8.02;4.78;;;;;;;11.88;72.41;100766.47;4149217;28;20038;-66
2022/10/10 07:52:57;;;;;;;10.98;4.45;;;;;;;11.94;72.10;100763.06;4149653;28;20076;-65
2022/10/10 07:55:00;;;;;;;7.93;4.50;;;;;;;12.04;71.73;100766.69;4162138;28;20041;-65
2022/10/10 07:57:03;;;;;;;9.38;4.50;;;;;;;12.03;71.14;100767.53;4147695;28;20038;-65
2022/10/10 07:59:05;;;;;;;7.15;5.20;;;;;;;12.14;71.72;100762.47;4165296;28;20392;-66
2022/10/10 08:01:10;;;;;;;9.20;4.97;;;;;;;12.16;71.45;100758.13;4147667;28;20602;-66
2022/10/10 08:03:14;;;;;;;9.95;4.63;;;;;;;12.23;71.19;100762.56;4130644;28;20396;-65
2022/10/10 08:05:17;;;;;;;9.23;4.95;;;;;;;12.26;71.34;100759.13;4153841;28;20450;-65
2022/10/10 08:07:20;;;;;;;6.57;4.07;;;;;;;12.40;71.08;100762.78;4156887;28;20097;-65
2022/10/10 08:09:23;;;;;;;6.95;4.40;;;;;;;12.40;71.11;100763.66;4131442;28;20041;-65
2022/10/10 08:11:26;;;;;;;7.70;3.67;;;;;;;12.40;71.53;100765.38;4147443;28;20133;-66
2022/10/10 08:13:29;;;;;;;6.13;3.80;;;;;;;12.41;71.72;100772.34;4150759;28;20077;-66
2022/10/10 08:15:31;;;;;;;10.05;5.82;;;;;;;12.49;71.72;100770.69;4156887;28;20034;-66
2022/10/10 08:17:36;;;;;;;9.98;4.68;;;;;;;12.59;71.54;100769.09;4156193;28;20117;-65
2022/10/10 08:19:40;;;;;;;7.55;4.63;;;;;;;12.64;71.29;100771.72;4157266;28;20464;-66
2022/10/10 08:21:42;;;;;;;6.40;3.80;;;;;;;12.69;71.18;100775.28;4148552;28;20491;-65
2022/10/10 08:23:46;;;;;;;6.45;3.75;;;;;;;12.74;71.50;100764.00;4149956;28;20400;-66
2022/10/10 08:25:48;;;;;;;9.55;4.65;;;;;;;12.82;71.40;100758.88;4155826;28;20403;-66
2022/10/10 08:27:51;;;;;;;6.60;3.97;;;;;;;12.89;71.33;100759.81;4148524;28;20045;-66
2022/10/10 08:29:54;;;;;;;10.90;5.22;;;;;;;13.03;71.37;100759.94;4148715;28;20045;-66
2022/10/10 08:31:57;;;;;;;7.85;4.53;;;;;;;13.01;71.10;100761.66;4148500;28;20044;-66
2022/10/10 08:33:59;;;;;;;9.32;4.07;;;;;;;13.05;70.91;100761.72;4147631;28;20037;-66
2022/10/10 08:36:09;;;;;;;7.38;4.40;;;;;;;13.17;70.85;100762.66;4151565;28;20046;-66
2022/10/10 08:38:12;;;;;;;10.93;5.40;;;;;;;13.28;70.50;100761.88;4135769;28;20101;-66
2022/10/10 08:40:19;;;;;;;7.38;4.60;;;;;;;13.31;71.09;100754.94;4148784;28;20038;-66
2022/10/10 08:42:29;;;;;;;9.40;5.57;;;;;;;13.40;71.06;100757.66;4148676;28;20038;-67
2022/10/10 08:44:40;;;;;;;8.00;5.47;;;;;;;13.42;70.60;100753.34;4146271;28;20088;-66
2022/10/10 08:46:48;;;;;;;13.32;6.32;;;;;;;13.51;70.28;100747.31;4131556;28;20100;-66
2022/10/10 08:48:54;;;;;;;11.85;6.10;;;;;;;13.52;70.32;100752.53;4130652;28;20050;-66
2022/10/10 08:51:01;;;;;;;11.05;5.05;;;;;;;13.67;70.14;100759.59;4148225;28;20042;-65
2022/10/10 08:53:10;;;;;;;9.68;5.28;;;;;;;13.67;70.38;100763.91;4152123;28;20314;-65
2022/10/10 08:55:17;;;;;;;10.75;6.18;;;;;;;13.77;70.40;100765.75;4155123;28;20548;-65
2022/10/10 08:57:25;;;;;;;9.32;5.40;;;;;;;13.69;70.43;100763.06;4146025;28;20041;-66
2022/10/10 08:59:31;;;;;;;10.43;4.93;;;;;;;13.71;71.01;100755.25;4152725;28;20033;-65
2022/10/10 09:01:37;;;;;;;8.75;5.60;;;;;;;13.90;70.12;100757.13;4157396;28;20034;-66
2022/10/10 09:04:02;;;;;;;11.15;4.93;;;;;;;13.98;70.23;100751.06;4160514;28;20034;-65
2022/10/10 09:06:16;;;;;;;;;;;;;;;13.99;69.77;100743.22;4155228;28;20481;-65
2022/10/10 09:08:33;;;;;;;9.70;5.35;;;;;;;14.16;69.21;100742.41;4154534;28;19963;-66
2022/10/10 09:10:43;;;;;;;9.93;4.95;;;;;;;14.22;69.34;100742.44;4153617;28;20042;-66
2022/10/10 09:12:58;;;;;;;9.75;4.68;;;;;;;14.32;69.43;100737.25;4153936;28;20038;-66
2022/10/10 09:15:14;;;;;;;11.82;6.05;;;;;;;14.52;69.32;100740.78;4152350;28;20381;-66
2022/10/10 09:17:24;;;;;;;7.50;4.47;;;;;;;14.49;69.32;100741.66;4152155;28;20480;-66
2022/10/10 09:19:39;;;;;;;12.52;4.65;;;;;;;14.60;68.86;100739.06;4149083;28;20133;-66
2022/10/10 09:21:43;;;;;;;9.10;5.13;;;;;;;14.64;68.12;100740.84;4155712;28;20048;-66
2022/10/10 09:23:53;;;;;;;10.35;5.55;;;;;;;14.78;69.05;100735.66;4147100;28;20045;-66
2022/10/10 09:26:01;;;;;;;9.70;5.75;;;;;;;14.92;68.36;100739.16;4147327;28;20034;-66
2022/10/10 09:28:16;;;;;;;6.93;4.43;;;;;;;14.99;68.13;100740.00;4147587;28;20042;-66
2022/10/10 09:30:21;;;;;;;9.57;5.22;;;;;;;15.12;67.65;100728.66;4152521;28;20042;-66
2022/10/10 09:32:28;;;;;;;9.75;5.72;;;;;;;15.10;66.85;100730.41;4157212;28;20473;-66
2022/10/10 09:34:37;;;;;;;12.70;6.13;;;;;;;15.18;66.71;100730.41;4153726;28;20088;-66
2022/10/10 09:36:40;;;;;;;12.73;6.97;;;;;;;15.30;66.67;100725.19;4130678;28;20049;-66
2022/10/10 09:38:47;;;;;;;8.75;4.38;;;;;;;15.45;66.76;100726.00;4146267;28;20187;-66